createdAt,value
2018-06-13T00:02:20.993Z,7.50
2018-06-13T00:04:49.267Z,5.83
2018-06-13T00:07:17.492Z,4.90
2018-06-13T00:09:48.887Z,6.40
2018-06-13T00:12:17.122Z,7.67
2018-06-13T00:14:45.879Z,7.25
2018-06-13T00:17:14.112Z,7.10
2018-06-13T00:19:42.494Z,7.30
2018-06-13T00:22:10.784Z,7.53
2018-06-13T00:24:39.043Z,5.22
2018-06-13T00:27:06.990Z,7.45
2018-06-13T00:29:35.217Z,7.33
2018-06-13T00:32:03.448Z,7.00
2018-06-13T00:34:31.639Z,8.10
2018-06-13T00:37:00.427Z,7.12
2018-06-13T00:39:28.896Z,8.63
2018-06-13T00:41:57.114Z,6.83
2018-06-13T00:44:25.343Z,8.53
2018-06-13T00:46:53.547Z,7.53
2018-06-13T00:49:21.775Z,6.30
2018-06-13T00:51:49.986Z,7.20
2018-06-13T00:54:18.183Z,5.33
2018-06-13T00:56:46.370Z,6.90
2018-06-13T00:59:14.594Z,6.17
2018-06-13T01:01:42.843Z,7.17
2018-06-13T01:04:10.863Z,6.83
2018-06-13T01:06:39.498Z,6.70
2018-06-13T01:09:08.425Z,5.90
2018-06-13T01:11:36.664Z,6.37
2018-06-13T01:14:04.882Z,5.83
2018-06-13T01:16:33.118Z,6.40
2018-06-13T01:19:01.128Z,6.12
2018-06-13T01:21:29.322Z,6.77
2018-06-13T01:23:58.073Z,6.77
2018-06-13T01:26:26.323Z,4.70
2018-06-13T01:28:54.599Z,6.22
2018-06-13T01:31:22.841Z,7.07
2018-06-13T01:33:51.092Z,6.30
2018-06-13T01:36:23.811Z,5.20
2018-06-13T01:38:52.081Z,6.80
2018-06-13T01:41:20.568Z,7.17
2018-06-13T01:43:49.052Z,6.97
2018-06-13T01:46:17.284Z,6.10
2018-06-13T01:48:45.476Z,6.40
2018-06-13T01:51:14.020Z,6.05
2018-06-13T01:53:42.241Z,6.47
2018-06-13T01:56:10.475Z,5.47
2018-06-13T01:58:38.726Z,6.47
2018-06-13T02:01:06.946Z,5.73
2018-06-13T02:03:35.172Z,6.35
2018-06-13T02:06:03.657Z,5.40
2018-06-13T02:08:31.884Z,5.70
2018-06-13T02:11:03.408Z,7.05
2018-06-13T02:13:31.612Z,6.60
2018-06-13T02:15:59.847Z,5.10
2018-06-13T02:18:28.404Z,6.10
2018-06-13T02:20:56.635Z,5.47
2018-06-13T02:23:24.892Z,4.50
2018-06-13T02:25:53.636Z,5.33
2018-06-13T02:28:21.848Z,5.63
2018-06-13T02:30:50.113Z,5.87
2018-06-13T02:33:18.360Z,5.83
2018-06-13T02:35:46.564Z,5.45
2018-06-13T02:38:14.815Z,6.63
2018-06-13T02:40:43.109Z,6.10
2018-06-13T02:43:15.832Z,5.80
2018-06-13T02:45:44.068Z,5.70
2018-06-13T02:48:12.495Z,6.60
2018-06-13T02:50:40.724Z,6.42
2018-06-13T02:53:08.997Z,5.73
2018-06-13T02:55:37.239Z,5.37
2018-06-13T02:58:08.340Z,5.23
2018-06-13T03:00:36.708Z,5.35
2018-06-13T03:03:04.942Z,4.70
2018-06-13T03:05:33.147Z,5.95
2018-06-13T03:08:01.406Z,5.70
2018-06-13T03:10:29.902Z,5.60
2018-06-13T03:12:58.148Z,5.58
2018-06-13T03:15:26.697Z,5.50
2018-06-13T03:17:54.942Z,4.87
2018-06-13T03:20:23.175Z,5.73
2018-06-13T03:22:51.223Z,5.83
2018-06-13T03:25:19.463Z,5.00
2018-06-13T03:27:47.752Z,5.33
2018-06-13T03:30:16.007Z,5.07
2018-06-13T03:32:44.947Z,5.57
2018-06-13T03:35:13.206Z,4.37
2018-06-13T03:37:42.443Z,4.97
2018-06-13T03:40:10.690Z,4.83
2018-06-13T03:42:41.958Z,5.43
2018-06-13T03:45:10.150Z,6.40
2018-06-13T03:47:38.403Z,5.10
2018-06-13T03:50:06.608Z,5.72
2018-06-13T03:52:34.814Z,5.70
2018-06-13T03:55:03.045Z,6.37
2018-06-13T03:57:34.346Z,6.87
2018-06-13T04:00:03.313Z,5.63
2018-06-13T04:02:31.547Z,6.77
2018-06-13T04:04:59.808Z,6.53
2018-06-13T04:07:28.006Z,7.20
2018-06-13T04:09:56.226Z,6.00
2018-06-13T04:12:24.520Z,8.08
2018-06-13T04:14:52.771Z,7.30
2018-06-13T04:17:21.028Z,5.93
2018-06-13T04:19:49.301Z,5.67
2018-06-13T04:22:17.578Z,5.57
2018-06-13T04:24:45.810Z,6.43
2018-06-13T04:27:14.254Z,5.60
2018-06-13T04:29:42.474Z,5.62
2018-06-13T04:32:10.707Z,5.20
2018-06-13T04:34:38.971Z,6.67
2018-06-13T04:37:07.260Z,5.77
2018-06-13T04:39:36.348Z,6.05
2018-06-13T04:42:04.537Z,4.97
2018-06-13T04:44:32.797Z,5.85
2018-06-13T04:47:01.309Z,5.40
2018-06-13T04:49:29.556Z,6.87
2018-06-13T04:51:57.794Z,6.47
2018-06-13T04:54:26.036Z,6.23
2018-06-13T04:56:54.295Z,6.55
2018-06-13T04:59:25.502Z,5.93
2018-06-13T05:01:53.701Z,5.28
2018-06-13T05:04:21.949Z,5.63
2018-06-13T05:06:50.805Z,5.64
2018-06-13T05:09:19.023Z,6.03
2018-06-13T05:11:47.273Z,5.60
2018-06-13T05:14:19.283Z,4.45
2018-06-13T05:16:47.564Z,4.87
2018-06-13T05:19:16.270Z,6.10
2018-06-13T05:21:44.576Z,5.03
2018-06-13T05:24:12.795Z,4.87
2018-06-13T05:26:41.278Z,5.25
2018-06-13T05:29:13.292Z,5.50
2018-06-13T05:31:41.721Z,5.08
2018-06-13T05:34:10.115Z,4.10
2018-06-13T05:36:38.396Z,4.83
2018-06-13T05:39:07.705Z,4.27
2018-06-13T05:41:36.860Z,3.43
2018-06-13T05:44:05.076Z,5.30
2018-06-13T05:46:33.367Z,3.77
2018-06-13T05:49:08.080Z,4.50
2018-06-13T05:51:36.324Z,5.40
2018-06-13T05:54:04.573Z,4.53
2018-06-13T05:56:32.865Z,5.10
2018-06-13T05:59:01.112Z,4.53
2018-06-13T06:01:29.408Z,4.97
2018-06-13T06:03:57.401Z,5.10
2018-06-13T06:06:25.667Z,5.23
2018-06-13T06:08:54.024Z,5.30
2018-06-13T06:11:22.391Z,4.23
2018-06-13T06:13:50.821Z,4.83
2018-06-13T06:16:19.192Z,5.30
2018-06-13T06:18:47.440Z,5.12
2018-06-13T06:21:16.326Z,4.28
2018-06-13T06:23:44.610Z,4.60
2018-06-13T06:26:13.037Z,3.70
2018-06-13T06:28:41.435Z,4.70
2018-06-13T06:31:09.640Z,3.72
2018-06-13T06:33:37.703Z,4.70
2018-06-13T06:36:06.266Z,3.02
2018-06-13T06:38:34.528Z,5.73
2018-06-13T06:41:02.745Z,4.25
2018-06-13T06:43:30.954Z,3.40
2018-06-13T06:45:59.536Z,5.37
2018-06-13T06:48:27.768Z,5.43
2018-06-13T06:50:56.005Z,4.80
2018-06-13T06:53:24.740Z,5.00
2018-06-13T06:55:52.700Z,4.97
2018-06-13T06:58:20.975Z,5.43
2018-06-13T07:00:56.831Z,6.83
2018-06-13T07:03:25.078Z,7.13
2018-06-13T07:05:53.304Z,5.97
2018-06-13T07:08:21.524Z,9.23
2018-06-13T07:10:50.065Z,8.97
2018-06-13T07:13:18.387Z,8.13
2018-06-13T07:15:46.532Z,8.00
2018-06-13T07:18:14.788Z,9.33
2018-06-13T07:20:42.983Z,10.90
2018-06-13T07:23:11.221Z,10.28
2018-06-13T07:25:39.463Z,11.00
2018-06-13T07:28:07.676Z,10.80
2018-06-13T07:30:35.909Z,10.60
2018-06-13T07:33:04.132Z,10.60
2018-06-13T07:35:32.356Z,12.00
2018-06-13T07:38:00.613Z,10.73
2018-06-13T07:40:28.884Z,10.73
2018-06-13T07:42:56.835Z,9.90
2018-06-13T07:45:25.101Z,8.83
2018-06-13T07:47:53.383Z,9.80
2018-06-13T07:50:21.655Z,9.40
2018-06-13T07:52:49.960Z,10.23
2018-06-13T07:55:18.190Z,8.87
2018-06-13T07:57:46.359Z,9.10
2018-06-13T08:00:14.681Z,9.83
2018-06-13T08:02:42.920Z,8.70
2018-06-13T08:05:11.248Z,9.57
2018-06-13T08:07:39.513Z,8.90
2018-06-13T08:10:07.752Z,8.57
2018-06-13T08:12:36.860Z,8.30
2018-06-13T08:15:05.430Z,9.10
2018-06-13T08:17:37.225Z,8.00
2018-06-13T08:20:05.452Z,8.70
2018-06-13T08:22:34.608Z,6.10
2018-06-13T08:25:02.836Z,7.33
2018-06-13T08:27:31.640Z,7.20
2018-06-13T08:29:59.961Z,7.03
2018-06-13T08:32:28.176Z,7.05
2018-06-13T08:34:56.456Z,5.27
2018-06-13T08:37:24.804Z,8.30
2018-06-13T08:39:53.016Z,6.10
2018-06-13T08:42:21.232Z,7.27
2018-06-13T08:44:49.452Z,7.40
2018-06-13T08:47:25.156Z,4.67
2018-06-13T08:49:53.360Z,4.90
2018-06-13T08:52:21.349Z,6.07
2018-06-13T08:54:49.767Z,5.83
2018-06-13T08:57:18.004Z,5.17
2018-06-13T08:59:46.193Z,5.27
2018-06-13T09:02:14.907Z,5.50
2018-06-13T09:04:46.887Z,6.03
2018-06-13T09:07:15.253Z,6.60
2018-06-13T09:09:43.529Z,5.23
2018-06-13T09:12:11.747Z,5.80
2018-06-13T09:14:39.977Z,5.10
2018-06-13T09:17:08.167Z,5.80
2018-06-13T09:19:36.440Z,4.37
2018-06-13T09:22:04.778Z,5.50
2018-06-13T09:24:33.052Z,4.60
2018-06-13T09:27:01.283Z,4.60
2018-06-13T09:29:29.485Z,4.40
2018-06-13T09:31:57.677Z,4.40
2018-06-13T09:34:28.876Z,5.25
2018-06-13T09:36:57.082Z,4.08
2018-06-13T09:39:25.324Z,4.85
2018-06-13T09:41:59.055Z,5.10
2018-06-13T09:44:27.253Z,5.70
2018-06-13T09:46:55.460Z,4.07
2018-06-13T09:49:28.257Z,5.17
2018-06-13T09:51:56.459Z,4.40
2018-06-13T09:54:25.329Z,4.40
2018-06-13T09:56:53.520Z,4.30
2018-06-13T09:59:22.894Z,4.77
2018-06-13T10:01:56.475Z,3.57
2018-06-13T10:04:27.674Z,4.40
2018-06-13T10:06:55.856Z,4.57
2018-06-13T10:09:23.843Z,3.97
2018-06-13T10:11:52.143Z,4.93
2018-06-13T10:14:20.440Z,4.47
2018-06-13T10:16:48.616Z,4.57
2018-06-13T10:19:16.877Z,5.70
2018-06-13T10:21:45.929Z,5.90
2018-06-13T10:24:14.161Z,4.62
2018-06-13T10:26:43.351Z,4.40
2018-06-13T10:29:12.211Z,4.80
2018-06-13T10:31:40.428Z,4.17
2018-06-13T10:34:09.400Z,3.77
2018-06-13T10:36:37.627Z,4.40
2018-06-13T10:39:07.871Z,3.80
2018-06-13T10:41:36.731Z,4.45
2018-06-13T10:44:05.465Z,3.60
2018-06-13T10:46:33.705Z,3.70
2018-06-13T10:49:01.936Z,4.47
2018-06-13T10:51:30.143Z,4.50
2018-06-13T10:53:58.673Z,3.50
2018-06-13T10:56:26.902Z,3.43
2018-06-13T10:58:56.016Z,4.15
2018-06-13T11:01:24.262Z,3.70
2018-06-13T11:03:52.584Z,4.03
2018-06-13T11:06:22.206Z,4.08
2018-06-13T11:08:51.300Z,4.80
2018-06-13T11:11:19.500Z,3.90
2018-06-13T11:13:47.717Z,3.92
2018-06-13T11:16:16.011Z,4.00
2018-06-13T11:18:44.011Z,4.40
2018-06-13T11:21:12.244Z,4.15
2018-06-13T11:23:41.363Z,4.90
2018-06-13T11:26:09.594Z,3.83
2018-06-13T11:28:37.819Z,3.87
2018-06-13T11:31:06.090Z,4.30
2018-06-13T11:33:34.296Z,4.07
2018-06-13T11:36:06.636Z,3.12
2018-06-13T11:38:34.839Z,4.45
2018-06-13T11:41:03.092Z,4.93
2018-06-13T11:43:31.321Z,5.53
2018-06-13T11:45:59.767Z,4.50
2018-06-13T11:48:28.387Z,4.87
2018-06-13T11:50:56.601Z,4.17
2018-06-13T11:53:24.841Z,4.08
2018-06-13T11:55:53.109Z,3.97
2018-06-13T11:58:21.321Z,3.22
2018-06-13T12:00:50.548Z,3.60
2018-06-13T12:03:18.877Z,4.30
2018-06-13T12:05:47.087Z,3.40
2018-06-13T12:08:15.968Z,4.10
2018-06-13T12:10:44.264Z,4.30
2018-06-13T12:13:12.480Z,4.70
2018-06-13T12:15:41.108Z,2.47
2018-06-13T12:18:09.360Z,4.20
2018-06-13T12:20:37.607Z,3.90
2018-06-13T12:23:06.188Z,4.93
2018-06-13T12:25:34.921Z,4.37
2018-06-13T12:28:03.802Z,4.35
2018-06-13T12:30:32.029Z,4.37
2018-06-13T12:33:00.297Z,4.27
2018-06-13T12:35:28.531Z,4.20
2018-06-13T12:37:56.826Z,4.25
2018-06-13T12:40:25.365Z,4.13
2018-06-13T12:42:54.108Z,4.53
2018-06-13T12:45:22.374Z,4.80
2018-06-13T12:47:50.625Z,4.60
2018-06-13T12:50:19.227Z,4.22
2018-06-13T12:52:47.459Z,3.92
2018-06-13T12:55:15.684Z,3.07
2018-06-13T12:57:44.327Z,5.05
2018-06-13T13:00:12.851Z,4.12
2018-06-13T13:02:41.109Z,4.43
2018-06-13T13:05:09.451Z,4.60
2018-06-13T13:07:37.812Z,4.03
2018-06-13T13:10:06.116Z,3.75
2018-06-13T13:12:34.376Z,3.30
2018-06-13T13:15:02.553Z,5.00
2018-06-13T13:17:30.548Z,4.83
2018-06-13T13:19:58.796Z,4.30
2018-06-13T13:22:27.003Z,4.27
2018-06-13T13:24:55.292Z,4.40
2018-06-13T13:27:23.547Z,4.50
2018-06-13T13:29:53.101Z,3.93
2018-06-13T13:32:21.309Z,4.10
2018-06-13T13:34:49.529Z,4.10
2018-06-13T13:37:20.501Z,5.56
2018-06-13T13:39:48.735Z,4.13
2018-06-13T13:42:17.056Z,3.40
2018-06-13T13:44:45.371Z,3.43
2018-06-13T13:47:13.676Z,3.47
2018-06-13T13:49:42.252Z,3.85
2018-06-13T13:52:10.486Z,3.95
2018-06-13T13:54:41.753Z,3.95
2018-06-13T13:57:10.554Z,3.15
2018-06-13T13:59:38.924Z,3.40
2018-06-13T14:02:07.815Z,3.60
2018-06-13T14:04:36.043Z,3.90
2018-06-13T14:07:04.344Z,3.77
2018-06-13T14:09:33.045Z,4.08
2018-06-13T14:12:01.328Z,3.60
2018-06-13T14:14:29.604Z,4.47
2018-06-13T14:16:57.829Z,4.55
2018-06-13T14:19:26.190Z,3.70
2018-06-13T14:21:54.640Z,2.95
2018-06-13T14:24:26.603Z,3.73
2018-06-13T14:26:54.857Z,3.90
2018-06-13T14:29:23.116Z,3.43
2018-06-13T14:31:51.405Z,3.08
2018-06-13T14:34:20.028Z,3.20
2018-06-13T14:36:49.197Z,3.17
2018-06-13T14:39:21.364Z,3.30
2018-06-13T14:41:50.251Z,3.23
2018-06-13T14:44:18.619Z,3.30
2018-06-13T14:46:46.839Z,3.30
2018-06-13T14:49:15.161Z,3.37
2018-06-13T14:51:45.283Z,2.75
2018-06-13T14:54:17.963Z,2.80
2018-06-13T14:56:46.534Z,2.53
2018-06-13T14:59:14.877Z,3.00
2018-06-13T15:01:44.339Z,3.20
2018-06-13T15:04:12.854Z,3.33
2018-06-13T15:06:41.125Z,3.60
2018-06-13T15:09:09.767Z,3.27
2018-06-13T15:11:39.644Z,3.12
2018-06-13T15:14:08.233Z,3.40
2018-06-13T15:16:36.440Z,3.10
2018-06-13T15:19:04.828Z,2.90
2018-06-13T15:21:33.880Z,2.65
2018-06-13T15:24:07.985Z,2.10
2018-06-13T15:26:36.553Z,2.93
2018-06-13T15:29:06.034Z,2.45
2018-06-13T15:31:34.860Z,3.20
2018-06-13T15:34:03.664Z,2.77
2018-06-13T15:36:32.437Z,2.63
2018-06-13T15:39:04.205Z,3.10
2018-06-13T15:41:32.772Z,3.60
2018-06-13T15:44:01.049Z,2.90
2018-06-13T15:46:29.943Z,3.00
2018-06-13T15:48:58.208Z,3.07
2018-06-13T15:51:26.918Z,2.50
2018-06-13T15:53:55.023Z,2.45
2018-06-13T15:56:23.249Z,3.40
2018-06-13T15:58:51.528Z,2.93
2018-06-13T16:01:19.900Z,2.70
2018-06-13T16:03:48.778Z,2.55
2018-06-13T16:06:18.008Z,2.83
2018-06-13T16:08:46.768Z,2.85
2018-06-13T16:11:18.863Z,2.77
2018-06-13T16:13:47.085Z,3.40
2018-06-13T16:16:15.314Z,2.80
2018-06-13T16:18:44.132Z,3.17
2018-06-13T16:21:12.361Z,2.10
2018-06-13T16:23:45.939Z,2.98
2018-06-13T16:26:21.791Z,3.37
2018-06-13T16:28:50.287Z,1.90
2018-06-13T16:31:19.243Z,2.02
2018-06-13T16:33:47.475Z,1.77
2018-06-13T16:36:16.000Z,2.27
2018-06-13T16:38:44.284Z,1.67
2018-06-13T16:41:16.572Z,1.90
2018-06-13T16:43:44.880Z,2.73
2018-06-13T16:46:13.105Z,2.08
2018-06-13T16:48:41.359Z,1.93
2018-06-13T16:51:20.847Z,1.80
2018-06-13T16:54:00.389Z,1.40
2018-06-13T16:56:28.740Z,2.00
2018-06-13T16:58:57.045Z,2.07
2018-06-13T17:01:25.452Z,2.20
2018-06-13T17:03:54.804Z,2.13
2018-06-13T17:06:23.574Z,2.30
2018-06-13T17:08:51.817Z,2.80
2018-06-13T17:11:20.467Z,1.90
2018-06-13T17:13:48.735Z,2.40
2018-06-13T17:16:17.746Z,1.95
2018-06-13T17:18:45.813Z,1.63
2018-06-13T17:21:14.168Z,1.97
2018-06-13T17:23:42.477Z,2.83
2018-06-13T17:26:18.561Z,2.30
2018-06-13T17:28:47.033Z,1.97
2018-06-13T17:31:16.167Z,2.08
2018-06-13T17:33:44.496Z,2.23
2018-06-13T17:36:12.764Z,1.67
2018-06-13T17:38:42.314Z,2.05
2018-06-13T17:41:14.169Z,2.20
2018-06-13T17:43:42.403Z,3.07
2018-06-13T17:46:11.271Z,1.60
2018-06-13T17:48:39.524Z,2.30
2018-06-13T17:51:08.506Z,1.50
2018-06-13T17:53:36.626Z,1.80
2018-06-13T17:56:04.992Z,1.73
2018-06-13T17:58:33.345Z,1.70
2018-06-13T18:01:01.693Z,2.40
2018-06-13T18:03:30.956Z,1.73
2018-06-13T18:05:59.320Z,1.77
2018-06-13T18:08:27.639Z,2.10
2018-06-13T18:10:57.232Z,1.98
2018-06-13T18:13:25.739Z,2.20
2018-06-13T18:15:54.108Z,1.83
2018-06-13T18:18:23.460Z,2.15
2018-06-13T18:20:54.011Z,1.80
2018-06-13T18:23:23.004Z,2.10
2018-06-13T18:25:51.719Z,2.17
2018-06-13T18:28:20.041Z,2.00
2018-06-13T18:30:51.127Z,1.90
2018-06-13T18:33:20.448Z,1.70
2018-06-13T18:35:48.832Z,1.75
2018-06-13T18:38:17.403Z,2.00
2018-06-13T18:40:45.789Z,2.63
2018-06-13T18:43:14.070Z,2.50
2018-06-13T18:45:42.340Z,2.00
2018-06-13T18:48:10.670Z,1.67
2018-06-13T18:50:38.987Z,1.70
2018-06-13T18:53:07.328Z,1.97
2018-06-13T18:55:36.653Z,2.23
2018-06-13T18:58:08.287Z,2.00
2018-06-13T19:00:37.081Z,1.72
2018-06-13T19:03:07.444Z,2.00
2018-06-13T19:05:36.337Z,1.90
2018-06-13T19:08:05.141Z,2.10
2018-06-13T19:10:34.745Z,1.70
2018-06-13T19:13:03.028Z,1.50
2018-06-13T19:15:32.371Z,2.90
2018-06-13T19:18:00.662Z,2.33
2018-06-13T19:20:28.910Z,2.30
2018-06-13T19:22:57.848Z,1.90
2018-06-13T19:25:26.125Z,1.60
2018-06-13T19:27:54.337Z,1.97
2018-06-13T19:30:22.564Z,2.20
2018-06-13T19:32:52.383Z,1.83
2018-06-13T19:35:20.775Z,1.70
2018-06-13T19:37:49.065Z,1.67
2018-06-13T19:40:17.378Z,1.93
2018-06-13T19:42:46.642Z,1.95
2018-06-13T19:45:15.551Z,2.17
2018-06-13T19:47:49.154Z,1.93
2018-06-13T19:50:18.472Z,1.65
2018-06-13T19:52:52.033Z,2.40
2018-06-13T19:55:25.718Z,1.75
2018-06-13T20:07:35.408Z,2.10
2018-06-13T20:10:03.751Z,2.40
2018-06-13T20:12:44.399Z,2.40
2018-06-13T20:15:18.068Z,2.27
2018-06-13T20:17:51.667Z,2.50
2018-06-13T20:20:20.988Z,2.10
2018-06-13T20:22:49.411Z,2.53
2018-06-13T20:25:23.149Z,2.60
2018-06-13T20:27:57.047Z,2.70
2018-06-13T20:30:30.603Z,2.13
2018-06-13T20:32:58.851Z,2.20
2018-06-13T20:35:27.232Z,2.67
2018-06-13T20:37:55.578Z,2.73
2018-06-13T20:40:23.869Z,2.92
2018-06-13T20:42:52.699Z,2.30
2018-06-13T20:45:28.476Z,2.40
2018-06-13T20:47:56.797Z,2.75
2018-06-13T20:50:25.210Z,2.27
2018-06-13T20:52:54.343Z,2.98
2018-06-13T20:55:22.329Z,1.98
2018-06-13T20:57:50.693Z,2.58
2018-06-13T21:00:18.937Z,2.53
2018-06-13T21:02:47.160Z,2.87
2018-06-13T21:05:15.437Z,2.50
2018-06-13T21:07:44.016Z,2.60
2018-06-13T21:10:12.292Z,2.75
2018-06-13T21:12:40.544Z,3.10
2018-06-13T21:15:12.337Z,3.07
2018-06-13T21:17:40.612Z,2.65
2018-06-13T21:20:09.101Z,2.30
2018-06-13T21:22:37.365Z,2.50
2018-06-13T21:25:05.612Z,2.27
2018-06-13T21:27:34.541Z,2.53
2018-06-13T21:30:09.748Z,2.55
2018-06-13T21:32:38.547Z,2.47
2018-06-13T21:35:06.980Z,2.30
2018-06-13T21:37:37.028Z,2.58
2018-06-13T21:40:05.336Z,2.40
2018-06-13T21:42:34.029Z,2.20
2018-06-13T21:45:02.677Z,2.20
2018-06-13T21:47:34.308Z,2.60
2018-06-13T21:50:04.377Z,2.43
2018-06-13T21:52:32.654Z,3.50
2018-06-13T21:55:00.879Z,3.07
2018-06-13T21:57:29.152Z,2.93
2018-06-13T21:59:57.379Z,2.90
2018-06-13T22:02:26.375Z,2.45
2018-06-13T22:04:56.093Z,2.20
2018-06-13T22:07:25.222Z,2.53
2018-06-13T22:09:53.455Z,2.80
2018-06-13T22:12:21.715Z,3.17
2018-06-13T22:14:50.983Z,2.50
2018-06-13T22:17:19.191Z,3.30
2018-06-13T22:19:47.596Z,3.00
2018-06-13T22:22:15.760Z,2.72
2018-06-13T22:24:44.168Z,3.17
2018-06-13T22:27:12.428Z,2.80
2018-06-13T22:29:40.680Z,2.65
2018-06-13T22:32:10.090Z,3.17
2018-06-13T22:34:38.356Z,3.15
2018-06-13T22:37:06.563Z,2.33
2018-06-13T22:39:35.155Z,3.17
2018-06-13T22:42:03.412Z,2.70
2018-06-13T22:44:31.680Z,2.73
2018-06-13T22:47:03.368Z,2.53
2018-06-13T22:49:31.863Z,2.73
2018-06-13T22:52:00.172Z,3.03
2018-06-13T22:54:28.419Z,2.70
2018-06-13T22:56:56.649Z,4.00
2018-06-13T22:59:24.671Z,2.70
2018-06-13T23:01:52.896Z,2.80
2018-06-13T23:04:21.496Z,2.97
2018-06-13T23:06:49.727Z,3.50
2018-06-13T23:09:17.973Z,3.20
2018-06-13T23:11:45.923Z,3.23
2018-06-13T23:14:14.158Z,2.70
2018-06-13T23:16:46.065Z,2.70
2018-06-13T23:19:14.702Z,2.95
2018-06-13T23:21:42.925Z,3.30
2018-06-13T23:24:11.449Z,3.43
2018-06-13T23:26:40.071Z,3.22
2018-06-13T23:29:08.282Z,3.17
2018-06-13T23:31:36.537Z,2.90
2018-06-13T23:34:04.831Z,3.40
2018-06-13T23:36:33.061Z,3.23
2018-06-13T23:39:01.316Z,3.58
2018-06-13T23:41:29.532Z,3.25
2018-06-13T23:43:57.780Z,2.72
2018-06-13T23:46:25.718Z,3.58
2018-06-13T23:48:53.993Z,3.60
2018-06-13T23:51:22.256Z,3.60
2018-06-13T23:53:50.561Z,3.10
2018-06-13T23:56:18.772Z,3.50
2018-06-13T23:58:47.900Z,3.30
